Time;durP1;ratioP1;P1;durP2;ratioP2;P2;SDS_P1;SDS_P2;PMS_P1;PMS_P2;Temp;Humidity;BMP_temperature;BMP_pressure;BME280_temperature;BME280_humidity;BME280_pressure;Samples;Min_cycle;Max_cycle;Signal;HPM_P1;HPM_P2
2023/10/12 00:02:28;;;;;;;13.90;3.90;;;13.60;99.90;;;14.53;100.00;98013.81;5016299;28;20479;-80
2023/10/12 00:05:06;;;;;;;15.73;4.70;;;13.60;99.90;;;14.54;100.00;98012.81;5014691;28;20531;-81
2023/10/12 00:07:42;;;;;;;20.87;3.97;;;13.50;99.90;;;14.55;100.00;98015.19;5018525;28;20470;-80
2023/10/12 00:10:21;;;;;;;13.47;3.90;;;13.60;99.90;;;14.56;100.00;98023.91;5019361;28;20453;-79
2023/10/12 00:12:59;;;;;;;11.63;3.70;;;13.70;99.90;;;14.54;100.00;98026.75;5017254;28;20490;-81
2023/10/12 00:15:38;;;;;;;15.83;4.37;;;13.60;99.90;;;14.55;100.00;98022.28;5017474;28;20498;-80
2023/10/12 00:18:10;;;;;;;9.47;4.20;;;13.60;99.90;;;14.49;100.00;98021.31;5018345;28;20869;-80
2023/10/12 00:20:40;;;;;;;12.07;4.43;;;13.60;99.90;;;14.50;100.00;98025.56;5015931;28;21131;-80
2023/10/12 00:23:14;;;;;;;7.60;3.80;;;13.60;99.90;;;14.48;100.00;98027.59;5018213;28;20473;-80
2023/10/12 00:25:54;;;;;;;8.90;3.60;;;13.50;99.90;;;14.40;100.00;98033.13;5020487;28;20464;-80
2023/10/12 00:28:29;;;;;;;10.37;4.00;;;13.40;99.90;;;14.35;100.00;98027.69;5021034;28;20517;-80
2023/10/12 00:31:06;;;;;;;11.10;3.90;;;13.40;99.90;;;14.37;100.00;98015.09;5022832;28;20468;-80
2023/10/12 00:33:38;;;;;;;13.90;4.77;;;13.40;99.90;;;14.39;100.00;98018.34;5024627;28;20488;-80
2023/10/12 00:36:19;;;;;;;10.70;4.00;;;13.50;99.90;;;14.32;100.00;98014.91;5024766;28;20492;-80
2023/10/12 00:38:52;;;;;;;14.97;4.37;;;13.30;99.90;;;14.31;100.00;98010.66;5026265;28;20481;-80
2023/10/12 00:41:24;;;;;;;8.70;3.70;;;13.30;99.90;;;14.31;100.00;98015.94;5021868;28;20505;-80
2023/10/12 00:44:08;;;;;;;11.73;3.87;;;13.40;99.90;;;14.27;100.00;98014.72;5024864;28;21259;-80
2023/10/12 00:46:58;;;;;;;11.93;4.07;;;13.50;99.90;;;14.28;100.00;98007.66;5024827;28;20499;-80
2023/10/12 00:49:30;;;;;;;16.10;4.20;;;13.30;99.90;;;14.26;100.00;98010.50;5026405;28;21114;-80
2023/10/12 00:52:08;;;;;;;11.67;4.20;;;13.40;99.90;;;14.15;100.00;98015.63;5024674;28;20478;-80
2023/10/12 00:54:43;;;;;;;6.80;3.47;;;13.20;99.90;;;14.14;100.00;98009.56;5025047;28;20497;-80
2023/10/12 00:57:13;;;;;;;11.63;3.90;;;13.20;99.90;;;14.14;100.00;98017.44;5026626;28;20462;-81
2023/10/12 00:59:43;;;;;;;13.60;4.33;;;13.20;99.90;;;14.12;100.00;98003.72;5024728;28;20458;-80
2023/10/12 01:02:17;;;;;;;7.03;3.87;;;13.30;99.90;;;14.15;100.00;98005.09;5023115;28;20463;-80
2023/10/12 01:04:48;;;;;;;14.70;4.23;;;13.20;99.90;;;14.13;100.00;98007.94;5024049;28;20458;-80
2023/10/12 01:07:25;;;;;;;8.97;3.70;;;13.10;99.90;;;14.14;100.00;98009.56;5026567;28;20480;-80
2023/10/12 01:10:03;;;;;;;12.23;4.10;;;13.10;99.90;;;14.13;100.00;98007.94;5023302;28;21086;-80
2023/10/12 01:12:34;;;;;;;6.60;4.03;;;13.10;99.90;;;14.11;100.00;98004.72;5023639;28;20475;-80
2023/10/12 01:15:08;;;;;;;11.70;3.70;;;13.00;99.90;;;14.11;100.00;98004.72;5025201;28;20813;-80
2023/10/12 01:17:41;;;;;;;7.43;3.70;;;13.10;99.90;;;14.07;100.00;97999.06;5025381;28;20873;-80
2023/10/12 01:20:16;;;;;;;10.90;3.80;;;13.10;99.90;;;14.07;100.00;97998.25;5024961;28;20473;-80
2023/10/12 01:22:48;;;;;;;8.00;4.00;;;13.10;99.90;;;14.02;100.00;98006.00;5023290;28;20523;-79
2023/10/12 01:25:28;;;;;;;14.47;4.60;;;13.00;99.90;;;14.03;100.00;97999.69;5025895;28;20538;-80
2023/10/12 01:28:04;;;;;;;6.70;3.93;;;13.10;99.90;;;14.02;100.00;97995.47;5023157;28;20512;-80
2023/10/12 01:30:36;;;;;;;7.40;3.73;;;13.00;99.90;;;14.01;100.00;97984.13;5024452;28;20539;-80
2023/10/12 01:33:07;;;;;;;8.80;4.10;;;13.00;99.90;;;14.01;100.00;97991.22;5024625;28;21563;-80
2023/10/12 01:35:40;;;;;;;9.83;4.23;;;13.00;99.90;;;13.98;100.00;97994.28;5021656;28;20487;-80
2023/10/12 01:38:14;;;;;;;7.37;3.70;;;13.00;99.90;;;13.98;100.00;97987.19;5022868;28;20459;-79
2023/10/12 01:40:52;;;;;;;19.83;4.50;;;13.10;99.90;;;13.96;100.00;97985.78;5024298;28;20459;-81
2023/10/12 01:43:27;;;;;;;9.17;4.10;;;13.00;99.90;;;13.93;100.00;97988.81;5024742;28;20949;-80
2023/10/12 01:46:01;;;;;;;7.57;3.93;;;13.00;99.90;;;13.95;100.00;97978.91;5024223;28;20980;-80
2023/10/12 01:48:34;;;;;;;9.03;4.30;;;13.00;99.90;;;13.93;100.00;97989.63;5025794;28;20543;-80
2023/10/12 01:51:10;;;;;;;14.63;4.37;;;13.00;99.90;;;13.96;100.00;97985.78;5023752;28;20476;-80
2023/10/12 01:53:42;;;;;;;9.00;4.10;;;13.00;99.90;;;13.90;100.00;97978.72;5022819;28;20488;-80
2023/10/12 01:56:13;;;;;;;12.23;3.87;;;13.00;99.90;;;13.91;100.00;97978.53;5024177;28;20579;-81
2023/10/12 01:58:44;;;;;;;13.90;4.40;;;13.00;99.90;;;13.92;100.00;97979.31;5024231;28;20467;-80
2023/10/12 02:01:18;;;;;;;8.23;3.93;;;13.00;99.90;;;13.94;100.00;97987.81;5024623;28;20462;-80
2023/10/12 02:03:54;;;;;;;14.00;3.93;;;13.10;99.90;;;13.96;100.00;97988.41;5024649;28;20490;-80
2023/10/12 02:06:28;;;;;;;9.97;3.50;;;13.10;99.90;;;13.97;100.00;97982.94;5024390;28;20468;-80
2023/10/12 02:09:08;;;;;;;8.30;4.37;;;13.10;99.90;;;13.96;100.00;97991.03;5023841;28;20461;-80
2023/10/12 02:11:44;;;;;;;10.23;3.87;;;13.10;99.90;;;13.95;100.00;97992.06;5021769;28;20463;-80
2023/10/12 02:14:22;;;;;;;7.83;4.10;;;13.10;99.90;;;13.96;100.00;97993.66;5022951;28;20475;-80
2023/10/12 02:16:56;;;;;;;7.97;3.97;;;13.10;99.90;;;13.99;100.00;97994.03;5020514;28;20502;-80
2023/10/12 02:19:38;;;;;;;7.93;4.00;;;13.10;99.90;;;14.00;100.00;97990.41;5025429;28;20840;-80
2023/10/12 02:22:23;;;;;;;8.50;4.30;;;13.00;99.90;;;14.01;100.00;97999.09;5022423;28;20462;-79
2023/10/12 02:25:07;;;;;;;17.20;4.67;;;13.00;99.90;;;14.02;100.00;98006.00;5025081;28;20480;-80
2023/10/12 02:27:42;;;;;;;14.10;5.00;;;13.10;99.90;;;14.02;100.00;98011.25;5024395;28;20465;-82
2023/10/12 02:30:18;;;;;;;8.43;4.73;;;13.10;99.90;;;14.01;100.00;98004.38;5024829;28;20475;-80
2023/10/12 02:33:00;;;;;;;7.73;4.37;;;13.10;99.90;;;14.03;100.00;98007.56;5024510;28;20514;-80
2023/10/12 02:35:36;;;;;;;13.90;4.10;;;13.20;99.90;;;14.02;100.00;98001.50;5024550;28;20481;-80
2023/10/12 02:38:07;;;;;;;8.27;3.83;;;13.10;99.90;;;14.05;100.00;98005.56;5024619;28;21147;-80
2023/10/12 02:40:41;;;;;;;9.07;3.73;;;13.20;99.90;;;14.09;100.00;98012.03;5024158;28;20536;-80
2023/10/12 02:43:11;;;;;;;11.20;4.60;;;13.20;99.90;;;14.13;100.00;98024.53;5016131;28;20464;-80
2023/10/12 02:45:42;;;;;;;10.80;4.93;;;13.30;99.90;;;14.15;100.00;98028.78;5017486;28;20820;-80
2023/10/12 02:48:23;;;;;;;13.30;4.30;;;13.40;99.90;;;14.16;100.00;98028.53;5016354;28;20479;-80
2023/10/12 02:50:58;;;;;;;16.80;4.07;;;13.30;99.90;;;14.14;100.00;98027.97;5016440;28;20477;-80
2023/10/12 02:53:30;;;;;;;8.67;4.50;;;13.30;99.90;;;14.20;100.00;98024.47;5016280;28;20487;-80
2023/10/12 02:56:05;;;;;;;10.77;4.90;;;13.40;99.90;;;14.23;100.00;98016.16;5017990;28;20486;-80
2023/10/12 02:58:34;;;;;;;9.10;4.00;;;13.40;99.90;;;14.28;100.00;98013.72;5016204;28;20459;-80
2023/10/12 03:01:18;;;;;;;11.13;4.33;;;13.40;99.90;;;14.28;100.00;98011.09;5014862;28;20566;-80
2023/10/12 03:03:50;;;;;;;19.00;11.60;;;13.40;99.90;;;14.30;100.00;98011.69;5017358;28;21030;-79
2023/10/12 03:06:23;;;;;;;24.00;12.60;;;13.50;99.90;;;14.33;100.00;98013.09;5017371;28;20465;-80
2023/10/12 03:09:14;;;;;;;10.30;4.67;;;13.50;99.90;;;14.34;100.00;98018.16;5017804;28;20519;-80
2023/10/12 03:11:47;;;;;;;10.17;4.90;;;13.50;99.90;;;14.39;100.00;98028.06;5016070;28;20479;-80
2023/10/12 03:14:26;;;;;;;8.80;5.67;;;13.50;99.90;;;14.39;100.00;98023.63;5016360;28;20489;-80
2023/10/12 03:17:02;;;;;;;14.33;4.67;;;13.50;99.90;;;14.43;100.00;98030.06;5016956;28;20498;-79
2023/10/12 03:19:39;;;;;;;11.43;3.90;;;13.50;99.90;;;14.45;100.00;98021.94;5025124;28;20561;-79
2023/10/12 03:22:23;;;;;;;11.07;4.30;;;13.50;99.90;;;14.47;100.00;98023.34;5021004;28;20463;-79
2023/10/12 03:24:54;;;;;;;15.83;4.00;;;13.40;99.90;;;14.48;100.00;98027.59;5019619;28;20466;-79
2023/10/12 03:27:27;;;;;;;10.77;4.70;;;13.60;99.90;;;14.48;100.00;98040.75;5017998;28;21022;-79
2023/10/12 03:30:07;;;;;;;7.47;3.80;;;13.60;99.90;;;14.50;100.00;98038.72;5018477;28;20975;-79
2023/10/12 03:32:40;;;;;;;14.57;4.60;;;13.60;99.90;;;14.53;100.00;98035.69;5016512;28;20520;-79
2023/10/12 03:35:15;;;;;;;11.83;4.80;;;13.60;99.90;;;14.51;100.00;98035.06;5018291;28;20457;-80
2023/10/12 03:37:52;;;;;;;10.60;4.43;;;13.60;99.90;;;14.55;100.00;98032.81;5014667;28;20494;-80
2023/10/12 03:43:25;;;;;;;17.23;5.40;;;13.60;99.90;;;14.56;100.00;98032.63;5017250;28;20464;-79
2023/10/12 03:46:15;;;;;;;7.37;3.60;;;13.70;99.90;;;14.56;100.00;98043.13;5016191;28;20465;-79
2023/10/12 03:49:04;;;;;;;23.07;5.87;;;13.70;99.90;;;14.57;100.00;98052.66;5016673;28;20473;-80
2023/10/12 03:51:41;;;;;;;11.97;4.77;;;13.70;99.90;;;14.58;100.00;98033.19;5016689;28;20494;-80
2023/10/12 03:54:26;;;;;;;6.87;4.80;;;13.80;99.90;;;14.59;100.00;98032.19;5018097;28;20481;-80
2023/10/12 03:57:06;;;;;;;22.40;4.67;;;13.70;99.90;;;14.60;100.00;98023.28;5017900;28;20529;-80
2023/10/12 03:59:44;;;;;;;6.27;3.60;;;13.70;99.90;;;14.60;100.00;98015.38;5018552;28;20459;-80
2023/10/12 04:02:15;;;;;;;15.43;4.07;;;13.70;99.90;;;14.59;100.00;98018.22;5021778;28;20540;-80
2023/10/12 04:04:53;;;;;;;11.17;4.57;;;13.60;99.90;;;14.60;100.00;98025.09;5020490;28;20470;-79
2023/10/12 04:07:37;;;;;;;7.23;4.90;;;13.70;99.90;;;14.59;100.00;98019.03;5020882;28;20865;-79
2023/10/12 04:10:14;;;;;;;7.63;3.97;;;13.80;99.90;;;14.61;100.00;98011.72;5023590;28;20478;-79
2023/10/12 04:12:53;;;;;;;7.70;3.70;;;13.70;99.90;;;14.59;100.00;98013.75;5020731;28;20497;-78
2023/10/12 04:15:35;;;;;;;6.43;3.60;;;13.70;99.90;;;14.60;100.00;98009.31;5021912;28;20546;-79
2023/10/12 04:18:07;;;;;;;9.00;3.77;;;13.70;99.90;;;14.58;100.00;98006.88;5021989;28;20770;-80
2023/10/12 04:20:40;;;;;;;7.37;3.73;;;13.70;99.90;;;14.63;100.00;98002.81;5021317;28;20455;-79
2023/10/12 04:26:08;;;;;;;13.77;3.53;;;13.70;99.90;;;14.61;100.00;98018.84;5021914;28;20458;-79
2023/10/12 04:28:39;;;;;;;9.83;4.40;;;13.70;99.90;;;14.60;100.00;98012.75;5022045;28;20494;-80
2023/10/12 04:31:20;;;;;;;7.93;4.07;;;13.80;99.90;;;14.63;100.00;98013.34;5020260;28;20524;-79
2023/10/12 04:34:05;;;;;;;10.30;4.33;;;13.70;99.90;;;14.60;100.00;98010.13;5020261;28;20880;-80
2023/10/12 04:36:44;;;;;;;12.27;7.00;;;13.70;99.90;;;14.63;100.00;98008.06;5019861;28;21097;-80
2023/10/12 04:39:23;;;;;;;287.63;143.17;;;13.70;99.90;;;14.60;100.00;98002.22;5018897;28;20453;-78
2023/10/12 04:42:08;;;;;;;27.30;12.83;;;13.70;99.90;;;14.63;100.00;98010.69;5020009;28;20481;-80
2023/10/12 04:44:43;;;;;;;11.73;4.57;;;13.70;99.90;;;14.60;100.00;98025.09;5018560;28;20468;-80
2023/10/12 04:47:22;;;;;;;13.80;5.50;;;13.70;99.90;;;14.58;100.00;98022.66;5022805;28;20467;-79
2023/10/12 04:49:57;;;;;;;12.57;4.80;;;13.80;99.90;;;14.59;100.00;98024.28;5020791;28;20459;-79
2023/10/12 04:52:40;;;;;;;9.83;5.40;;;13.80;99.90;;;14.60;100.00;98025.09;5022220;28;20487;-79
2023/10/12 04:55:21;;;;;;;11.97;4.87;;;13.80;99.90;;;14.61;100.00;98034.63;5023109;28;20962;-79
2023/10/12 04:58:15;;;;;;;9.70;4.20;;;13.70;99.90;;;14.59;100.00;98071.66;5022212;28;20498;-79
2023/10/12 05:01:01;;;;;;;12.93;4.60;;;13.70;99.90;;;14.56;100.00;98058.13;5021570;28;20466;-79
2023/10/12 05:03:41;;;;;;;13.87;4.17;;;13.80;99.90;;;14.57;100.00;98047.41;5021760;28;20471;-79
2023/10/12 05:06:16;;;;;;;14.87;4.83;;;13.80;99.90;;;14.61;100.00;98043.28;5021966;28;20455;-79
2023/10/12 05:08:54;;;;;;;13.97;4.13;;;13.80;99.90;;;14.60;100.00;98020.66;5021294;28;21210;-80
2023/10/12 05:11:27;;;;;;;7.60;5.07;;;13.70;99.90;;;14.58;100.00;98017.41;5021366;28;20481;-79
2023/10/12 05:14:01;;;;;;;14.33;4.23;;;13.80;99.90;;;14.59;100.00;98007.69;5025928;28;20541;-79
2023/10/12 05:16:34;;;;;;;15.43;4.10;;;13.70;99.90;;;14.56;100.00;97998.41;5031237;28;20487;-80
2023/10/12 05:19:08;;;;;;;6.73;4.30;;;13.70;99.90;;;14.58;100.00;97996.34;5029754;28;20465;-79
2023/10/12 05:21:37;;;;;;;14.53;5.23;;;13.60;99.90;;;14.58;100.00;98017.41;5030617;28;20466;-79
2023/10/12 05:24:09;;;;;;;10.60;4.80;;;13.60;99.90;;;14.54;100.00;98029.38;5030513;28;20493;-79
2023/10/12 05:26:39;;;;;;;9.10;4.77;;;13.70;99.90;;;14.55;100.00;98028.34;5029276;28;20466;-80
2023/10/12 05:29:33;;;;;;;8.60;4.00;;;13.80;99.90;;;14.57;100.00;98062.38;5028347;28;21251;-79
2023/10/12 05:32:18;;;;;;;7.90;4.90;;;13.70;99.90;;;14.58;100.00;98049.00;5029805;28;20462;-79
2023/10/12 05:34:52;;;;;;;6.93;3.70;;;13.90;99.90;;;14.59;100.00;98041.91;5030750;28;20544;-79
2023/10/12 05:37:26;;;;;;;8.70;4.27;;;13.80;99.90;;;14.61;100.00;98053.81;5029726;28;20841;-79
2023/10/12 05:39:59;;;;;;;11.73;3.70;;;13.80;99.90;;;14.60;100.00;98065.38;5029246;28;20474;-79
2023/10/12 05:42:33;;;;;;;12.83;4.10;;;13.70;99.90;;;14.60;100.00;98072.47;5030168;28;21056;-79
2023/10/12 05:45:19;;;;;;;10.10;3.90;;;13.70;99.90;;;14.57;100.00;98078.97;5029707;28;20465;-80
2023/10/12 05:47:53;;;;;;;10.80;3.90;;;13.70;99.90;;;14.57;100.00;98084.25;5029077;28;20469;-79
2023/10/12 05:50:28;;;;;;;18.87;4.43;;;13.60;99.90;;;14.60;100.00;98083.81;5028756;28;20456;-79
2023/10/12 05:53:00;;;;;;;14.03;4.40;;;13.70;99.90;;;14.59;100.00;98076.94;5026600;28;20485;-80
2023/10/12 05:55:33;;;;;;;10.10;5.23;;;13.80;99.90;;;14.61;100.00;98089.88;5020577;28;20458;-79
2023/10/12 05:58:11;;;;;;;8.83;4.10;;;13.80;99.90;;;14.65;100.00;98093.69;5020392;28;20483;-79
2023/10/12 06:00:44;;;;;;;8.90;4.80;;;13.80;99.90;;;14.64;100.00;98091.28;5020800;28;20501;-79
2023/10/12 06:03:16;;;;;;;10.63;4.43;;;13.70;99.90;;;14.67;100.00;98090.84;5021166;28;20527;-79
2023/10/12 06:05:50;;;;;;;7.70;3.90;;;13.80;99.90;;;14.66;100.00;98089.22;5020066;28;20462;-80
2023/10/12 06:08:25;;;;;;;11.57;4.30;;;13.70;99.90;;;14.66;100.00;98081.34;5020803;28;20959;-79
2023/10/12 06:10:55;;;;;;;13.40;4.33;;;13.70;99.90;;;14.67;100.00;98082.97;5023175;28;20457;-79
2023/10/12 06:13:30;;;;;;;9.07;4.40;;;13.70;99.90;;;14.67;100.00;98089.03;5020264;28;20474;-79
2023/10/12 06:16:00;;;;;;;7.33;4.60;;;13.70;99.90;;;14.71;100.00;98097.31;5022298;28;20474;-79
2023/10/12 06:18:31;;;;;;;22.47;4.60;;;13.80;99.90;;;14.69;100.00;98094.06;5019297;28;20498;-79
2023/10/12 06:21:06;;;;;;;10.40;5.30;;;13.70;99.90;;;14.67;100.00;98104.03;5019062;28;20548;-79
2023/10/12 06:23:39;;;;;;;11.57;4.53;;;13.70;99.90;;;14.65;100.00;98106.84;5020551;28;20913;-79
2023/10/12 06:26:16;;;;;;;6.43;4.03;;;13.80;99.90;;;14.68;100.00;98105.63;5021174;28;20463;-79
2023/10/12 06:28:44;;;;;;;17.97;4.93;;;13.90;99.90;;;14.68;100.00;98103.81;5019854;28;20469;-79
2023/10/12 06:31:15;;;;;;;9.40;4.07;;;13.80;99.90;;;14.72;100.00;98102.34;5024484;28;21115;-81
2023/10/12 06:33:48;;;;;;;10.97;4.40;;;13.80;99.90;;;14.69;100.00;98101.97;5026551;28;20841;-79
2023/10/12 06:36:36;;;;;;;17.80;5.20;;;13.80;99.90;;;14.69;100.00;98097.50;5021862;28;20978;-80
2023/10/12 06:41:59;;;;;;;10.90;5.63;;;13.80;99.90;;;14.74;100.00;98092.44;5019089;28;20535;-81
2023/10/12 06:44:33;;;;;;;12.40;5.07;;;13.80;99.90;;;14.73;100.00;98090.81;5020446;28;20469;-80
2023/10/12 06:47:24;;;;;;;8.47;4.10;;;13.80;99.90;;;14.76;100.00;98108.81;5020598;28;20461;-80
2023/10/12 06:50:00;;;;;;;9.10;4.37;;;13.80;99.90;;;14.77;100.00;98113.06;5017665;28;20473;-80
2023/10/12 06:52:31;;;;;;;18.40;4.57;;;13.90;99.90;;;14.79;100.00;98099.69;5020747;28;21004;-80
2023/10/12 06:55:08;;;;;;;15.80;4.90;;;14.00;99.90;;;14.84;100.00;98103.31;5020537;28;20477;-79
2023/10/12 06:57:43;;;;;;;8.13;4.40;;;14.00;99.90;;;14.88;100.00;98098.41;5019980;28;20499;-79
2023/10/12 07:00:19;;;;;;;10.77;4.70;;;14.00;99.90;;;14.90;100.00;98089.28;5019178;28;20541;-79
2023/10/12 07:02:51;;;;;;;12.80;5.33;;;14.00;99.90;;;14.92;100.00;98087.25;5021295;28;20956;-80
2023/10/12 07:05:28;;;;;;;8.23;4.43;;;14.00;99.90;;;14.94;100.00;98077.31;5021464;28;20458;-80
2023/10/12 07:08:02;;;;;;;11.20;4.60;;;14.00;99.90;;;14.97;100.00;98076.88;5019602;28;20494;-79
2023/10/12 07:10:34;;;;;;;7.50;4.03;;;14.00;99.90;;;14.98;100.00;98075.06;5021071;28;21140;-79
2023/10/12 07:13:10;;;;;;;10.40;4.80;;;14.10;99.90;;;15.00;100.00;98051.94;5024287;28;20554;-80
2023/10/12 07:15:42;;;;;;;10.03;5.17;;;14.10;99.90;;;15.02;100.00;98047.28;5030303;28;20515;-79
2023/10/12 07:18:16;;;;;;;12.80;5.13;;;14.10;99.90;;;15.04;100.00;98077.63;5025558;28;20492;-79
2023/10/12 07:20:46;;;;;;;14.00;5.40;;;14.10;99.90;;;15.07;100.00;98079.03;5027802;28;20476;-78
2023/10/12 07:23:20;;;;;;;67.67;8.40;;;14.20;99.90;;;15.06;100.00;98103.78;5028535;28;20476;-80
2023/10/12 07:26:00;;;;;;;33.53;6.07;;;14.20;99.90;;;15.07;100.00;98127.25;5028916;28;20458;-80
2023/10/12 07:28:33;;;;;;;11.30;5.10;;;14.20;99.90;;;15.09;100.00;98137.59;5022636;28;20466;-79
2023/10/12 07:31:23;;;;;;;10.40;4.83;;;14.30;99.90;;;15.16;100.00;98134.91;5020047;28;20450;-80
2023/10/12 07:34:01;;;;;;;25.23;5.97;;;14.40;99.90;;;15.19;100.00;98143.19;5019692;28;20457;-80
2023/10/12 07:36:44;;;;;;;22.03;5.17;;;14.40;99.90;;;15.22;100.00;98163.81;5019783;28;20945;-80
2023/10/12 07:39:19;;;;;;;10.07;4.53;;;14.40;99.90;;;15.24;100.00;98161.00;5020444;28;20489;-80
2023/10/12 07:41:57;;;;;;;11.93;4.30;;;14.40;99.90;;;15.26;100.00;98172.13;5021495;28;20464;-80
2023/10/12 07:44:37;;;;;;;11.57;4.33;;;14.50;99.90;;;15.31;100.00;98159.91;5020510;28;20533;-80
2023/10/12 07:47:14;;;;;;;7.80;4.40;;;14.50;99.90;;;15.35;100.00;98184.00;5019977;28;20458;-80
2023/10/12 07:49:49;;;;;;;13.87;4.90;;;14.50;99.90;;;15.38;100.00;98162.47;5019863;28;20458;-79
2023/10/12 07:52:38;;;;;;;6.50;3.87;;;14.60;99.90;;;15.41;100.00;98176.03;5020461;28;20659;-80
2023/10/12 07:55:13;;;;;;;29.47;5.03;;;14.60;99.90;;;15.44;100.00;98195.91;5020415;28;20882;-82
2023/10/12 07:57:44;;;;;;;14.87;5.17;;;14.60;99.90;;;15.46;100.00;98178.03;5019454;28;20527;-80
2023/10/12 08:00:35;;;;;;;21.30;5.60;;;14.70;99.90;;;15.51;100.00;98181.69;5021748;28;20466;-80
2023/10/12 08:03:18;;;;;;;9.80;4.00;;;14.70;99.90;;;15.54;100.00;98191.81;5019841;28;20466;-80
2023/10/12 08:06:00;;;;;;;12.90;4.80;;;14.80;99.90;;;15.57;100.00;98188.72;5023470;28;20546;-79
2023/10/12 08:08:34;;;;;;;16.27;4.73;;;14.80;99.90;;;15.60;100.00;98188.31;5024262;28;20538;-80
2023/10/12 08:11:10;;;;;;;15.40;4.20;;;14.80;99.90;;;15.64;100.00;98179.97;5022698;28;20541;-79
2023/10/12 08:13:48;;;;;;;13.80;4.80;;;14.80;99.90;;;15.64;100.00;98164.94;5024649;28;20458;-79
2023/10/12 08:16:26;;;;;;;18.33;4.20;;;14.80;99.90;;;15.67;100.00;98185.59;5022282;28;20462;-80
2023/10/12 08:19:28;;;;;;;14.83;4.50;;;14.80;99.90;;;15.69;100.00;98172.22;5022177;28;20474;-80
2023/10/12 08:22:03;;;;;;;9.93;4.27;;;14.90;99.90;;;15.72;100.00;98166.50;5023670;28;20462;-80
2023/10/12 08:24:36;;;;;;;9.20;4.60;;;14.90;99.90;;;15.73;100.00;98174.19;5025243;28;20461;-80
2023/10/12 08:27:12;;;;;;;17.30;4.77;;;14.90;99.90;;;15.75;100.00;98172.16;5022503;28;20536;-79
2023/10/12 08:32:29;;;;;;;16.60;4.70;;;14.90;99.90;;;15.78;100.00;98157.72;5017936;28;20489;-80
2023/10/12 08:35:10;;;;;;;12.80;5.20;;;15.00;99.90;;;15.81;100.00;98167.84;5018483;28;20485;-80
2023/10/12 08:38:11;;;;;;;10.87;4.70;;;15.00;99.90;;;15.83;100.00;98184.22;5017876;28;20465;-80
2023/10/12 08:41:19;;;;;;;16.43;4.97;;;14.90;99.90;;;15.85;100.00;98172.47;5020885;28;20476;-80
2023/10/12 08:43:48;;;;;;;12.50;4.13;;;15.00;99.90;;;15.85;100.00;98177.75;5018370;28;20498;-80
2023/10/12 08:52:06;;;;;;;10.63;5.40;;;15.00;99.90;;;15.85;100.00;98187.47;5024945;28;20788;-80
2023/10/12 08:54:58;;;;;;;21.10;5.00;;;15.00;99.90;;;15.86;100.00;98189.09;5024256;28;20548;-79
2023/10/12 08:57:43;;;;;;;14.30;4.50;;;15.00;99.90;;;15.83;100.00;98184.22;5019597;28;20457;-80
2023/10/12 09:00:25;;;;;;;12.03;4.83;;;15.10;99.90;;;15.84;100.00;98185.84;5024361;28;20543;-80
2023/10/12 09:03:00;;;;;;;10.30;4.83;;;15.00;99.90;;;15.82;100.00;98185.28;5021415;28;20495;-79
2023/10/12 09:05:33;;;;;;;11.83;5.93;;;15.00;99.90;;;15.82;100.00;98174.72;5028135;28;20469;-79
2023/10/12 09:08:24;;;;;;;8.00;4.63;;;15.00;99.90;;;15.85;100.00;98163.75;5031767;28;20449;-80
2023/10/12 09:10:58;;;;;;;12.53;5.07;;;15.00;99.90;;;15.86;100.00;98168.00;5030536;28;20467;-80
2023/10/12 09:13:30;;;;;;;13.30;5.27;;;14.90;99.90;;;15.85;100.00;98166.38;5034078;28;20491;-80
2023/10/12 09:16:04;;;;;;;13.90;5.10;;;15.00;99.90;;;15.83;100.00;98158.69;5029973;28;20466;-80
2023/10/12 09:18:43;;;;;;;9.27;5.50;;;15.00;99.90;;;15.83;100.00;98166.59;5019541;28;20458;-80
2023/10/12 09:21:38;;;;;;;10.53;5.07;;;15.10;99.90;;;15.84;100.00;98176.13;5021527;28;20462;-79
2023/10/12 09:24:27;;;;;;;11.67;4.97;;;15.00;99.90;;;15.84;100.00;98180.59;5023551;28;20478;-79
2023/10/12 09:27:02;;;;;;;9.33;5.00;;;15.00;99.90;;;15.83;100.00;98177.13;5021243;28;20462;-80
2023/10/12 09:29:42;;;;;;;15.93;5.50;;;15.10;99.90;;;15.86;100.00;98183.84;5020254;28;20477;-80
2023/10/12 09:32:15;;;;;;;11.30;5.20;;;15.10;99.90;;;15.90;100.00;98184.97;5021989;28;20553;-79
2023/10/12 09:35:02;;;;;;;14.40;5.60;;;15.10;99.90;;;15.90;100.00;98174.44;5021682;28;20556;-80
2023/10/12 09:37:43;;;;;;;14.60;5.00;;;15.10;99.90;;;15.89;100.00;98175.47;5021324;28;20501;-79
2023/10/12 09:40:34;;;;;;;15.90;5.70;;;15.00;99.90;;;15.89;100.00;98178.94;5020809;28;20499;-79
2023/10/12 09:43:07;;;;;;;11.50;4.70;;;15.00;99.90;;;15.91;100.00;98181.34;5020387;28;20592;-78
2023/10/12 09:45:41;;;;;;;16.67;5.30;;;15.00;99.90;;;15.90;100.00;98184.97;5021186;28;20469;-80
2023/10/12 09:48:27;;;;;;;10.97;5.70;;;15.00;99.90;;;15.90;100.00;98190.25;5021007;28;21047;-80
2023/10/12 09:51:01;;;;;;;11.40;5.67;;;15.10;99.90;;;15.90;100.00;98192.91;5022189;28;20486;-80
2023/10/12 09:53:42;;;;;;;10.13;5.00;;;15.10;99.90;;;15.93;100.00;98185.34;5023720;28;20457;-79
2023/10/12 09:56:16;;;;;;;11.10;5.90;;;15.10;99.90;;;15.94;100.00;98191.44;5027543;28;20490;-80
2023/10/12 09:59:02;;;;;;;13.50;6.00;;;15.10;99.90;;;15.93;100.00;98200.41;5028375;28;20991;-80
2023/10/12 10:01:49;;;;;;;17.13;5.67;;;15.10;99.90;;;15.93;100.00;98200.41;5024978;28;20477;-80
2023/10/12 10:04:29;;;;;;;13.20;5.77;;;15.10;99.90;;;15.94;100.00;98218.63;5026765;28;20964;-79
2023/10/12 10:07:18;;;;;;;10.77;5.10;;;15.10;99.90;;;15.95;100.00;98237.91;5026544;28;20466;-80
2023/10/12 10:09:53;;;;;;;15.90;5.47;;;15.10;99.90;;;15.93;100.00;98224.13;5027174;28;20490;-79
2023/10/12 10:12:27;;;;;;;11.73;5.77;;;15.20;99.90;;;15.93;100.00;98210.94;5028120;28;20823;-79
2023/10/12 10:15:00;;;;;;;7.50;5.10;;;15.20;99.90;;;15.94;100.00;98217.81;5026928;28;21240;-80
2023/10/12 10:17:36;;;;;;;9.40;5.43;;;15.10;99.90;;;15.95;100.00;98227.34;5022587;28;20524;-80
2023/10/12 10:23:12;;;;;;;9.03;5.57;;;15.20;99.90;;;15.92;100.00;98218.06;5020382;28;20462;-80
2023/10/12 10:25:54;;;;;;;8.53;5.27;;;15.20;99.90;;;15.91;100.00;98207.72;5019752;28;20470;-80
2023/10/12 10:28:29;;;;;;;13.20;5.60;;;15.20;99.90;;;15.88;100.00;98185.22;5020753;28;20469;-80
2023/10/12 10:31:00;;;;;;;9.23;5.17;;;15.20;99.90;;;15.92;100.00;98169.75;5020717;28;20501;-80
2023/10/12 10:33:37;;;;;;;11.60;5.93;;;15.10;99.90;;;15.90;100.00;98174.44;5018515;28;20467;-77
2023/10/12 10:36:13;;;;;;;13.80;5.60;;;15.20;99.90;;;15.92;100.00;98156.56;5020195;28;20553;-80
2023/10/12 10:38:53;;;;;;;15.07;5.10;;;15.20;99.90;;;15.91;100.00;98162.88;5020526;28;21123;-80
2023/10/12 10:41:38;;;;;;;13.90;5.47;;;15.20;99.90;;;15.93;100.00;98172.16;5019803;28;20540;-80
2023/10/12 10:44:13;;;;;;;13.57;5.80;;;15.30;99.90;;;15.93;100.00;98180.09;5020804;28;20519;-80
2023/10/12 10:46:45;;;;;;;16.50;5.43;;;15.20;99.90;;;15.94;100.00;98179.06;5021363;28;20472;-80
2023/10/12 10:49:17;;;;;;;18.37;6.33;;;15.20;99.90;;;15.98;100.00;98192.63;5021228;28;20939;-79
2023/10/12 10:52:02;;;;;;;15.80;5.20;;;15.20;99.90;;;15.99;100.00;98194.25;5019496;28;20462;-79
2023/10/12 10:54:33;;;;;;;14.60;5.67;;;15.20;99.90;;;15.99;100.00;98179.22;5026853;28;20461;-80
2023/10/12 10:57:14;;;;;;;10.50;5.50;;;15.10;99.90;;;15.99;100.00;98175.78;5028468;28;20562;-80
2023/10/12 10:59:45;;;;;;;15.13;6.30;;;15.30;99.90;;;15.99;100.00;98159.97;5025427;28;20486;-80
2023/10/12 11:02:16;;;;;;;10.00;5.20;;;15.30;99.90;;;15.98;100.00;98156.50;5026512;28;20497;-80
2023/10/12 11:04:46;;;;;;;8.77;5.40;;;15.40;99.90;;;16.02;100.00;98168.25;5024951;28;20471;-79
2023/10/12 11:07:18;;;;;;;9.50;5.10;;;15.30;99.90;;;16.01;100.00;98163.16;5026158;28;20521;-79
2023/10/12 11:10:08;;;;;;;10.10;5.73;;;15.20;99.90;;;16.02;100.00;98164.78;5026169;28;20462;-79